Time;durP1;ratioP1;P1;durP2;ratioP2;P2;SDS_P1;SDS_P2;PMS_P1;PMS_P2;Temp;Humidity;BMP_temperature;BMP_pressure;BME280_temperature;BME280_humidity;BME280_pressure;Samples;Min_cycle;Max_cycle;Signal;HPM_P1;HPM_P2
2023/01/11 00:01:20;;;;;;;6.00;0.70;;;4.80;99.90;;;;;;4976660;28;20295;-73
2023/01/11 00:03:46;;;;;;;1.43;0.70;;;4.90;99.90;;;;;;4982957;28;20187;-72
2023/01/11 00:06:11;;;;;;;2.13;0.73;;;5.00;99.90;;;;;;4977882;28;20571;-71
2023/01/11 00:08:38;;;;;;;2.70;0.90;;;5.00;99.90;;;;;;4986272;28;20234;-71
2023/01/11 00:11:09;;;;;;;2.17;0.70;;;5.10;99.90;;;;;;4994270;28;20542;-71
2023/01/11 00:13:35;;;;;;;2.17;0.93;;;5.10;99.90;;;;;;4994241;28;20450;-71
2023/01/11 00:16:05;;;;;;;1.20;0.60;;;5.10;99.90;;;;;;4994244;28;20461;-70
2023/01/11 00:18:31;;;;;;;1.60;0.70;;;5.10;99.90;;;;;;4989600;28;20247;-71
2023/01/11 00:20:56;;;;;;;2.60;1.10;;;5.10;99.90;;;;;;4993812;28;20431;-71
2023/01/11 00:23:22;;;;;;;4.73;0.80;;;5.20;99.90;;;;;;4994157;28;20200;-71
2023/01/11 00:25:47;;;;;;;4.53;0.90;;;5.20;99.90;;;;;;4981208;28;20651;-71
2023/01/11 00:28:13;;;;;;;2.30;0.70;;;5.30;99.90;;;;;;4994373;28;20533;-71
2023/01/11 00:30:38;;;;;;;1.63;0.80;;;5.30;99.90;;;;;;4994013;28;20581;-71
2023/01/11 00:33:04;;;;;;;1.70;0.70;;;5.30;99.90;;;;;;4993944;28;20188;-71
2023/01/11 00:35:31;;;;;;;1.70;0.90;;;5.40;99.90;;;;;;4988520;28;20249;-70
2023/01/11 00:37:57;;;;;;;2.07;0.50;;;5.40;99.90;;;;;;4987280;28;20172;-71
2023/01/11 00:40:23;;;;;;;1.80;0.83;;;5.50;99.90;;;;;;4994227;28;20909;-71
2023/01/11 00:48:17;;;;;;;4.73;0.90;;;5.50;99.90;;;;;;4994253;28;20454;-71
2023/01/11 00:50:42;;;;;;;1.10;0.50;;;5.40;99.90;;;;;;4993910;28;20451;-71
2023/01/11 00:53:08;;;;;;;2.53;1.10;;;5.40;99.90;;;;;;4992380;28;20239;-71
2023/01/11 00:55:35;;;;;;;1.63;0.60;;;5.30;99.90;;;;;;4983391;28;20647;-71
2023/01/11 00:58:01;;;;;;;1.60;0.70;;;5.30;99.90;;;;;;4990003;28;20191;-71
2023/01/11 01:00:27;;;;;;;2.80;0.80;;;5.30;99.90;;;;;;4973995;28;20499;-71
2023/01/11 01:02:53;;;;;;;1.20;0.50;;;5.30;99.90;;;;;;4979595;28;20456;-71
2023/01/11 01:05:19;;;;;;;2.13;0.60;;;5.30;99.90;;;;;;4983565;28;21121;-71
2023/01/11 01:07:45;;;;;;;1.30;0.60;;;5.30;99.90;;;;;;4981022;28;20195;-71
2023/01/11 01:10:13;;;;;;;1.27;0.47;;;5.30;99.90;;;;;;4992498;28;20183;-71
2023/01/11 01:15:23;;;;;;;4.50;1.40;;;5.30;99.90;;;;;;4992946;28;20469;-71
2023/01/11 01:17:52;;;;;;;5.73;0.80;;;5.30;99.90;;;;;;4983952;28;20431;-70
2023/01/11 01:20:19;;;;;;;1.30;0.57;;;5.30;99.90;;;;;;4989591;28;20216;-71
2023/01/11 01:22:45;;;;;;;1.40;0.60;;;5.30;99.90;;;;;;4973332;28;20846;-71
2023/01/11 01:25:11;;;;;;;1.40;0.50;;;5.30;99.90;;;;;;4979391;28;20463;-71
2023/01/11 01:27:36;;;;;;;4.50;0.60;;;5.30;99.90;;;;;;4967438;28;20547;-71
2023/01/11 01:30:04;;;;;;;1.20;0.60;;;5.30;99.90;;;;;;4992789;28;20196;-71
2023/01/11 01:32:30;;;;;;;1.20;0.60;;;5.40;99.90;;;;;;4993075;28;20640;-71
2023/01/11 01:34:55;;;;;;;1.70;0.70;;;5.40;99.90;;;;;;4993017;28;20502;-71
2023/01/11 01:37:21;;;;;;;2.50;0.97;;;5.30;99.90;;;;;;4980090;28;20219;-71
2023/01/11 01:39:47;;;;;;;4.70;0.80;;;5.40;99.90;;;;;;4986301;28;20207;-71
2023/01/11 01:42:14;;;;;;;1.10;0.47;;;5.40;99.90;;;;;;4991982;28;20180;-71
2023/01/11 01:44:58;;;;;;;2.70;0.60;;;5.30;99.90;;;;;;4992327;28;20231;-71
2023/01/11 01:47:32;;;;;;;1.30;0.57;;;5.40;99.90;;;;;;4989991;28;20426;-71
2023/01/11 01:50:03;;;;;;;1.87;0.80;;;5.40;99.90;;;;;;4992559;28;20477;-71
2023/01/11 01:52:31;;;;;;;1.57;0.70;;;5.30;99.90;;;;;;4985838;28;20456;-71
2023/01/11 01:55:01;;;;;;;2.23;0.83;;;5.40;99.90;;;;;;4987175;28;20493;-72
2023/01/11 01:57:30;;;;;;;1.10;0.50;;;5.40;99.90;;;;;;4992341;28;20790;-71
2023/01/11 01:59:59;;;;;;;1.20;0.57;;;5.40;99.90;;;;;;4974955;28;20416;-71
2023/01/11 02:02:25;;;;;;;3.03;0.70;;;5.40;99.90;;;;;;4965284;28;20500;-72
2023/01/11 02:04:55;;;;;;;7.47;0.70;;;5.50;99.90;;;;;;4984993;28;20460;-71
2023/01/11 02:07:25;;;;;;;1.20;0.53;;;5.50;99.90;;;;;;4984009;28;20180;-71
2023/01/11 02:10:14;;;;;;;1.20;0.50;;;5.50;99.90;;;;;;4967306;28;20432;-72
2023/01/11 02:12:50;;;;;;;1.40;0.57;;;5.60;99.90;;;;;;4989496;28;20462;-71
2023/01/11 02:15:18;;;;;;;1.30;0.63;;;5.60;99.90;;;;;;4979424;28;20462;-71
2023/01/11 02:17:44;;;;;;;1.77;0.87;;;5.60;99.90;;;;;;4991935;28;20427;-71
2023/01/11 02:20:10;;;;;;;1.43;0.70;;;5.70;99.90;;;;;;4990626;28;20415;-71
2023/01/11 02:22:57;;;;;;;1.70;0.70;;;5.70;99.90;;;;;;4990780;28;20200;-71
2023/01/11 02:25:51;;;;;;;1.10;0.50;;;5.70;99.90;;;;;;4985069;28;20185;-71
2023/01/11 02:28:24;;;;;;;3.67;0.73;;;5.70;99.90;;;;;;4992416;28;20427;-72
2023/01/11 02:31:04;;;;;;;1.53;0.60;;;5.70;99.90;;;;;;4991541;28;20427;-71
2023/01/11 02:33:45;;;;;;;2.60;0.67;;;5.70;99.90;;;;;;4991565;28;20514;-71
2023/01/11 02:36:34;;;;;;;1.50;0.50;;;5.70;99.90;;;;;;4991957;28;20465;-71
2023/01/11 02:39:29;;;;;;;1.20;0.43;;;5.70;99.90;;;;;;4992082;28;20522;-71
2023/01/11 02:45:02;;;;;;;3.30;1.13;;;5.70;99.90;;;;;;4991225;28;20414;-71
2023/01/11 02:47:38;;;;;;;1.10;0.40;;;5.70;99.90;;;;;;4989431;28;20414;-71
2023/01/11 02:50:10;;;;;;;1.10;0.40;;;5.80;99.90;;;;;;4991791;28;20413;-71
2023/01/11 02:53:07;;;;;;;1.10;0.50;;;5.80;99.90;;;;;;4991510;28;21161;-71
2023/01/11 02:55:40;;;;;;;1.40;0.53;;;5.90;99.90;;;;;;4991453;28;20477;-71
2023/01/11 02:58:09;;;;;;;1.97;0.80;;;5.90;99.90;;;;;;4990044;28;20410;-71
2023/01/11 03:00:39;;;;;;;1.30;0.70;;;5.90;99.90;;;;;;4971756;28;20411;-71
2023/01/11 03:03:06;;;;;;;1.10;0.40;;;6.00;99.90;;;;;;4978638;28;20417;-71
2023/01/11 03:05:36;;;;;;;1.70;0.40;;;6.00;99.90;;;;;;4979422;28;20463;-71
2023/01/11 03:08:09;;;;;;;1.30;0.60;;;6.00;99.90;;;;;;4989784;28;20430;-71
2023/01/11 03:10:54;;;;;;;4.00;0.50;;;6.10;99.90;;;;;;4991308;28;20767;-71
2023/01/11 03:13:49;;;;;;;1.17;0.50;;;6.10;99.90;;;;;;4991273;28;20534;-71
2023/01/11 03:16:24;;;;;;;1.10;0.40;;;6.20;99.90;;;;;;4989109;28;20434;-72
2023/01/11 03:19:05;;;;;;;1.13;0.53;;;6.20;99.90;;;;;;4991319;28;20422;-71
2023/01/11 03:22:00;;;;;;;2.90;0.50;;;6.20;99.90;;;;;;4994801;28;20773;-71
2023/01/11 03:24:34;;;;;;;2.20;0.53;;;6.20;99.90;;;;;;4971782;28;20427;-71
2023/01/11 03:27:51;;;;;;;1.10;0.40;;;6.30;99.90;;;;;;4991607;28;20452;-71
2023/01/11 03:30:36;;;;;;;1.10;0.43;;;6.30;99.90;;;;;;4982769;28;20438;-71
2023/01/11 03:33:08;;;;;;;1.30;0.57;;;6.30;99.90;;;;;;4994864;28;20402;-71
2023/01/11 03:36:14;;;;;;;1.50;0.53;;;6.30;99.90;;;;;;4969604;28;20480;-71
2023/01/11 03:39:03;;;;;;;1.20;0.50;;;6.30;99.90;;;;;;4982148;28;20446;-71
2023/01/11 03:41:35;;;;;;;1.10;0.40;;;6.40;99.90;;;;;;4947331;28;20438;-71
2023/01/11 03:44:04;;;;;;;1.20;0.50;;;6.40;99.90;;;;;;4993926;28;20481;-71
2023/01/11 03:46:43;;;;;;;1.87;0.60;;;6.30;99.90;;;;;;4993282;28;20444;-71
2023/01/11 03:49:23;;;;;;;1.40;0.50;;;6.40;99.90;;;;;;4995607;28;20418;-71
2023/01/11 03:51:50;;;;;;;1.50;0.60;;;6.40;99.90;;;;;;4969800;28;20789;-71
2023/01/11 03:54:22;;;;;;;1.10;0.50;;;6.40;99.90;;;;;;4994875;28;21001;-71
2023/01/11 03:56:53;;;;;;;4.50;0.70;;;6.40;99.90;;;;;;4968268;28;20415;-71
2023/01/11 03:59:19;;;;;;;1.60;0.73;;;6.40;99.90;;;;;;4971097;28;20435;-71
2023/01/11 04:01:44;;;;;;;1.30;0.60;;;6.30;99.90;;;;;;4973426;28;20972;-71
2023/01/11 04:04:10;;;;;;;2.90;0.70;;;6.30;99.90;;;;;;4987929;28;20218;-71
2023/01/11 04:06:37;;;;;;;1.10;0.50;;;6.30;99.90;;;;;;4982727;28;20561;-71
2023/01/11 04:09:03;;;;;;;1.40;0.60;;;6.30;99.90;;;;;;4993875;28;20180;-71
2023/01/11 04:11:29;;;;;;;2.27;0.60;;;6.30;99.90;;;;;;4993862;28;20422;-71
2023/01/11 04:13:55;;;;;;;1.40;0.50;;;6.30;99.90;;;;;;4993528;28;20485;-71
2023/01/11 04:16:21;;;;;;;1.60;0.70;;;6.30;99.90;;;;;;4990157;28;20180;-72
2023/01/11 04:18:46;;;;;;;1.10;0.40;;;6.40;99.90;;;;;;4988433;28;20427;-72
2023/01/11 04:21:12;;;;;;;1.73;0.70;;;6.40;99.90;;;;;;4991415;28;20172;-72
2023/01/11 04:23:38;;;;;;;1.10;0.40;;;6.40;99.90;;;;;;4993508;28;20196;-71
2023/01/11 04:26:03;;;;;;;1.97;0.50;;;6.40;99.90;;;;;;4993588;28;20184;-71
2023/01/11 04:28:29;;;;;;;1.10;0.40;;;6.40;99.90;;;;;;4991713;28;20234;-71
2023/01/11 04:30:54;;;;;;;2.33;0.60;;;6.40;99.90;;;;;;4993508;28;20557;-71
2023/01/11 04:33:20;;;;;;;1.20;0.53;;;6.40;99.90;;;;;;4993595;28;20211;-71
2023/01/11 04:35:46;;;;;;;1.93;0.60;;;6.40;99.90;;;;;;4993963;28;20207;-71
2023/01/11 04:38:12;;;;;;;1.20;0.50;;;6.40;99.90;;;;;;4993844;28;20187;-71
2023/01/11 04:40:38;;;;;;;1.50;0.63;;;6.30;99.90;;;;;;4993469;28;20423;-72
2023/01/11 04:43:03;;;;;;;1.90;0.53;;;6.30;99.90;;;;;;4993018;28;20179;-71
2023/01/11 04:45:29;;;;;;;1.20;0.50;;;6.40;99.90;;;;;;4993138;28;20270;-71
2023/01/11 04:47:56;;;;;;;1.10;0.40;;;6.50;99.90;;;;;;4990328;28;20237;-71
2023/01/11 04:50:23;;;;;;;4.60;0.57;;;6.50;99.90;;;;;;4993104;28;20419;-71
2023/01/11 04:52:48;;;;;;;1.10;0.40;;;6.50;99.90;;;;;;4993126;28;20441;-71
2023/01/11 04:55:14;;;;;;;1.10;0.40;;;6.50;99.90;;;;;;4992995;28;21273;-72
2023/01/11 04:57:40;;;;;;;1.10;0.50;;;6.50;99.90;;;;;;4986276;28;20591;-71
2023/01/11 05:00:09;;;;;;;2.07;0.67;;;6.50;99.90;;;;;;4974650;28;20173;-72
2023/01/11 05:02:36;;;;;;;1.10;0.40;;;6.50;99.90;;;;;;4975141;28;20176;-72
2023/01/11 05:05:03;;;;;;;1.10;0.40;;;6.50;99.90;;;;;;4985411;28;20433;-72
2023/01/11 05:07:29;;;;;;;1.67;0.60;;;6.50;99.90;;;;;;4979132;28;20884;-71
2023/01/11 05:09:54;;;;;;;1.10;0.50;;;6.40;99.90;;;;;;4993572;28;21082;-71
2023/01/11 05:12:20;;;;;;;1.13;0.47;;;6.40;99.90;;;;;;4992578;28;20192;-71
2023/01/11 05:14:45;;;;;;;1.10;0.40;;;6.40;99.90;;;;;;4992971;28;20207;-71
2023/01/11 05:17:15;;;;;;;1.10;0.47;;;6.40;99.90;;;;;;4985140;28;20234;-72
2023/01/11 05:19:41;;;;;;;1.20;0.50;;;6.40;99.90;;;;;;4993623;28;20255;-72
2023/01/11 05:22:07;;;;;;;1.53;0.67;;;6.30;99.90;;;;;;4991167;28;20526;-71
2023/01/11 05:24:33;;;;;;;1.10;0.40;;;6.30;99.90;;;;;;4993405;28;20431;-71
2023/01/11 05:26:58;;;;;;;1.10;0.40;;;6.40;99.90;;;;;;4991036;28;20430;-71
2023/01/11 05:29:24;;;;;;;2.90;0.70;;;6.40;99.90;;;;;;4982161;28;20241;-71
2023/01/11 05:31:50;;;;;;;1.70;0.60;;;6.40;99.90;;;;;;4992901;28;20707;-71
2023/01/11 05:34:16;;;;;;;3.43;0.80;;;6.50;99.90;;;;;;4992953;28;20529;-71
2023/01/11 05:36:43;;;;;;;1.90;0.70;;;6.50;99.90;;;;;;4993183;28;20191;-71
2023/01/11 05:39:11;;;;;;;1.20;0.57;;;6.50;99.90;;;;;;4989706;28;20447;-72
2023/01/11 05:41:37;;;;;;;1.40;0.50;;;6.50;99.90;;;;;;4975513;28;20431;-71
2023/01/11 05:46:48;;;;;;;1.27;0.50;;;6.60;99.90;;;;;;4986549;28;20551;-71
2023/01/11 05:49:14;;;;;;;2.30;0.87;;;6.60;99.90;;;;;;4984730;28;20954;-71
2023/01/11 05:51:41;;;;;;;1.77;0.83;;;6.70;99.90;;;;;;4992478;28;20184;-71
2023/01/11 05:54:10;;;;;;;1.40;0.70;;;6.70;99.90;;;;;;4992729;28;20423;-71
2023/01/11 05:56:36;;;;;;;1.87;0.50;;;6.70;99.90;;;;;;4992616;28;20444;-71
2023/01/11 05:59:02;;;;;;;1.30;0.60;;;6.70;99.90;;;;;;4982943;28;21180;-72
2023/01/11 06:01:28;;;;;;;1.10;0.40;;;6.70;99.90;;;;;;4974601;28;20172;-71
2023/01/11 06:03:54;;;;;;;1.50;0.57;;;6.70;99.90;;;;;;4985416;28;20510;-71
2023/01/11 06:06:20;;;;;;;3.43;0.60;;;6.80;99.90;;;;;;4976732;28;20184;-72
2023/01/11 06:08:46;;;;;;;1.30;0.70;;;6.80;99.90;;;;;;4985452;28;20212;-71
2023/01/11 06:11:13;;;;;;;2.00;0.67;;;6.80;99.90;;;;;;4992334;28;20426;-71
2023/01/11 06:13:39;;;;;;;1.10;0.50;;;6.80;99.90;;;;;;4992097;28;20186;-71
2023/01/11 06:16:04;;;;;;;1.30;0.50;;;6.80;99.90;;;;;;4990284;28;20937;-71
2023/01/11 06:18:33;;;;;;;1.83;0.70;;;6.90;99.90;;;;;;4984969;28;20588;-71
2023/01/11 06:21:00;;;;;;;2.80;0.70;;;6.80;99.90;;;;;;4989740;28;20315;-71
2023/01/11 06:23:27;;;;;;;1.20;0.50;;;6.90;99.90;;;;;;4991754;28;20530;-71
2023/01/11 06:25:53;;;;;;;1.10;0.50;;;6.90;99.90;;;;;;4991880;28;20868;-71
2023/01/11 06:28:19;;;;;;;1.63;0.80;;;6.90;99.90;;;;;;4991675;28;20430;-72
2023/01/11 06:30:52;;;;;;;3.60;1.03;;;6.90;99.90;;;;;;4991388;28;20478;-71
2023/01/11 06:33:18;;;;;;;1.53;0.80;;;6.90;99.90;;;;;;4991431;28;21062;-71
2023/01/11 06:35:44;;;;;;;1.30;0.60;;;7.00;99.90;;;;;;4991987;28;20554;-71
2023/01/11 06:38:12;;;;;;;2.17;0.60;;;7.00;99.90;;;;;;4992259;28;20180;-72
2023/01/11 06:40:39;;;;;;;1.10;0.50;;;7.00;99.90;;;;;;4992088;28;20191;-71
2023/01/11 06:43:05;;;;;;;1.30;0.60;;;7.00;99.90;;;;;;4991493;28;20546;-72
2023/01/11 06:45:31;;;;;;;1.50;0.60;;;7.10;99.90;;;;;;4991364;28;20473;-71
2023/01/11 06:47:57;;;;;;;1.30;0.60;;;7.10;99.90;;;;;;4992022;28;20423;-71
2023/01/11 06:50:24;;;;;;;1.10;0.40;;;7.00;99.90;;;;;;4991570;28;20516;-71
2023/01/11 06:52:57;;;;;;;1.80;0.50;;;7.00;99.90;;;;;;4990866;28;20783;-71
2023/01/11 06:55:25;;;;;;;1.30;0.60;;;7.00;99.90;;;;;;4991977;28;20467;-72
2023/01/11 06:57:51;;;;;;;1.33;0.60;;;7.00;99.90;;;;;;4984286;28;20427;-72
2023/01/11 07:00:18;;;;;;;1.60;0.73;;;7.00;99.90;;;;;;4976829;28;20423;-71
2023/01/11 07:02:44;;;;;;;1.70;0.70;;;7.00;99.90;;;;;;4974524;28;20214;-71
2023/01/11 07:05:10;;;;;;;1.30;0.50;;;6.90;99.90;;;;;;4982615;28;20812;-72
2023/01/11 07:07:37;;;;;;;1.20;0.50;;;6.90;99.90;;;;;;4977469;28;20427;-71
2023/01/11 07:10:06;;;;;;;3.13;0.83;;;6.90;99.90;;;;;;4991533;28;20448;-71
2023/01/11 07:12:32;;;;;;;1.30;0.60;;;6.90;99.90;;;;;;4990792;28;20899;-71
2023/01/11 07:14:58;;;;;;;1.20;0.50;;;7.00;99.90;;;;;;4987831;28;20950;-71
2023/01/11 07:17:24;;;;;;;1.30;0.50;;;6.90;99.90;;;;;;4978964;28;20453;-70
2023/01/11 07:19:49;;;;;;;1.30;0.60;;;7.00;99.90;;;;;;4990466;28;20180;-71
2023/01/11 07:22:15;;;;;;;1.20;0.57;;;7.00;99.90;;;;;;4990205;28;20199;-71
2023/01/11 07:24:41;;;;;;;1.20;0.60;;;7.00;99.90;;;;;;4990900;28;20184;-71
2023/01/11 07:27:06;;;;;;;1.10;0.50;;;7.10;99.90;;;;;;4987421;28;20292;-71
2023/01/11 07:29:32;;;;;;;1.10;0.50;;;7.10;99.90;;;;;;4980423;28;20188;-71
2023/01/11 07:31:57;;;;;;;1.30;0.50;;;7.10;99.90;;;;;;4990568;28;20661;-71
2023/01/11 07:34:23;;;;;;;1.40;0.70;;;7.10;99.90;;;;;;4991286;28;20208;-71
2023/01/11 07:36:49;;;;;;;1.40;0.50;;;7.10;99.90;;;;;;4991508;28;20179;-71
2023/01/11 07:39:15;;;;;;;1.43;0.50;;;7.10;99.90;;;;;;4991494;28;20434;-71
2023/01/11 07:44:24;;;;;;;2.20;0.50;;;7.10;99.90;;;;;;4975446;28;20271;-67
2023/01/11 07:46:50;;;;;;;1.40;0.70;;;7.20;99.90;;;;;;4990193;28;20506;-71
2023/01/11 07:49:15;;;;;;;1.20;0.53;;;7.20;99.90;;;;;;4990965;28;20222;-71
2023/01/11 07:51:41;;;;;;;1.63;0.73;;;7.30;99.90;;;;;;4977562;28;20183;-71
2023/01/11 07:54:07;;;;;;;1.40;0.60;;;7.30;99.90;;;;;;4990889;28;20191;-70
2023/01/11 07:56:32;;;;;;;1.90;0.83;;;7.40;99.90;;;;;;4990932;28;20187;-70
2023/01/11 07:58:58;;;;;;;2.50;0.87;;;7.40;99.90;;;;;;4973357;28;20200;-70
2023/01/11 08:01:23;;;;;;;1.20;0.40;;;7.50;99.90;;;;;;4972289;28;20284;-71
2023/01/11 08:03:50;;;;;;;1.87;0.60;;;7.50;99.90;;;;;;4984765;28;20257;-71
2023/01/11 08:06:16;;;;;;;1.20;0.50;;;7.50;99.90;;;;;;4979031;28;20271;-71
2023/01/11 08:08:42;;;;;;;1.40;0.70;;;7.60;99.90;;;;;;4986468;28;20496;-70
2023/01/11 08:16:36;;;;;;;2.53;0.80;;;7.70;99.90;;;;;;4994235;28;20418;-71
2023/01/11 08:19:03;;;;;;;2.33;1.00;;;7.70;99.90;;;;;;4994472;28;20419;-70
2023/01/11 08:21:29;;;;;;;1.70;0.60;;;7.80;99.90;;;;;;4991174;28;20222;-71
2023/01/11 08:23:56;;;;;;;1.87;1.03;;;7.80;99.90;;;;;;4994447;28;20410;-71
2023/01/11 08:26:23;;;;;;;3.10;1.00;;;7.80;99.90;;;;;;4994133;28;20257;-71
2023/01/11 08:28:49;;;;;;;1.20;0.60;;;7.90;99.90;;;;;;4994164;28;20422;-71
2023/01/11 08:31:15;;;;;;;1.20;0.50;;;8.00;99.90;;;;;;4993404;28;20413;-71
2023/01/11 08:33:40;;;;;;;2.57;0.70;;;8.00;99.90;;;;;;4993616;28;20195;-71
2023/01/11 08:36:08;;;;;;;2.13;0.97;;;8.00;99.90;;;;;;4993752;28;20454;-71
2023/01/11 08:38:34;;;;;;;5.63;0.90;;;8.10;99.90;;;;;;4994046;28;20196;-71
2023/01/11 08:41:09;;;;;;;1.30;0.60;;;8.10;99.90;;;;;;4993755;28;20512;-71
2023/01/11 08:43:36;;;;;;;1.33;0.60;;;8.10;99.90;;;;;;4992820;28;20181;-71
2023/01/11 08:46:01;;;;;;;1.30;0.60;;;8.20;99.90;;;;;;4992982;28;20630;-71
2023/01/11 08:48:27;;;;;;;2.83;0.93;;;8.10;99.90;;;;;;4993660;28;20571;-71
2023/01/11 08:50:53;;;;;;;1.10;0.40;;;8.20;99.90;;;;;;4993501;28;20179;-71
2023/01/11 08:53:19;;;;;;;1.43;0.73;;;8.20;99.90;;;;;;4993186;28;20226;-71
2023/01/11 08:55:47;;;;;;;1.10;0.40;;;8.20;99.90;;;;;;4993318;28;20541;-70
2023/01/11 08:58:13;;;;;;;1.57;0.70;;;8.20;99.90;;;;;;4982965;28;20498;-71
2023/01/11 09:00:38;;;;;;;1.10;0.40;;;8.20;99.90;;;;;;4973290;28;20507;-70
2023/01/11 09:03:04;;;;;;;1.30;0.50;;;8.30;99.90;;;;;;4979125;28;20206;-70
2023/01/11 09:05:30;;;;;;;1.93;0.70;;;8.30;99.90;;;;;;4980351;28;20228;-71
2023/01/11 09:07:56;;;;;;;1.30;0.60;;;8.30;99.90;;;;;;4981459;28;20676;-71
2023/01/11 09:10:26;;;;;;;1.10;0.50;;;8.30;99.90;;;;;;4993277;28;20476;-71
2023/01/11 09:12:53;;;;;;;1.83;0.70;;;8.40;99.90;;;;;;4992414;28;20179;-71
2023/01/11 09:15:18;;;;;;;1.20;0.50;;;8.40;99.90;;;;;;4977816;28;20458;-70
2023/01/11 09:17:46;;;;;;;2.10;0.70;;;8.40;99.90;;;;;;4992840;28;20425;-71
2023/01/11 09:20:11;;;;;;;1.63;0.70;;;8.30;99.90;;;;;;4991484;28;20208;-71
2023/01/11 09:22:37;;;;;;;1.50;0.70;;;8.40;99.90;;;;;;4992011;28;20477;-71
2023/01/11 09:25:04;;;;;;;1.90;0.90;;;8.40;99.90;;;;;;4993320;28;20803;-71
2023/01/11 09:27:29;;;;;;;1.23;0.57;;;8.40;99.90;;;;;;4992583;28;20184;-71
2023/01/11 09:29:55;;;;;;;2.47;0.83;;;8.50;99.90;;;;;;4992245;28;20415;-72
2023/01/11 09:32:21;;;;;;;2.20;0.77;;;8.50;99.90;;;;;;4991736;28;20191;-71
2023/01/11 09:34:48;;;;;;;1.40;0.60;;;8.50;99.90;;;;;;4992727;28;20200;-71
2023/01/11 09:37:14;;;;;;;2.40;0.70;;;8.50;99.90;;;;;;4979726;28;20172;-71
2023/01/11 09:39:40;;;;;;;1.10;0.50;;;8.50;99.90;;;;;;4992820;28;20407;-71
2023/01/11 09:42:34;;;;;;;1.30;0.60;;;8.60;99.90;;;;;;4979825;28;20470;-71
2023/01/11 09:45:14;;;;;;;1.30;0.60;;;8.50;99.90;;;;;;4977269;28;20773;-71
2023/01/11 09:48:03;;;;;;;1.10;0.40;;;8.60;99.90;;;;;;4991572;28;20418;-71
2023/01/11 09:50:38;;;;;;;1.60;0.60;;;8.60;99.90;;;;;;4970806;28;20426;-72
2023/01/11 09:53:08;;;;;;;2.20;0.70;;;8.60;99.90;;;;;;4991958;28;20803;-71
2023/01/11 09:55:39;;;;;;;1.10;0.40;;;8.60;99.90;;;;;;4992423;28;20549;-71
2023/01/11 09:58:27;;;;;;;1.30;0.60;;;8.70;99.90;;;;;;4983458;28;20423;-71
2023/01/11 10:01:24;;;;;;;1.30;0.50;;;8.70;99.90;;;;;;4967405;28;20412;-71
2023/01/11 10:04:31;;;;;;;1.20;0.50;;;8.70;99.90;;;;;;4964724;28;20431;-71
2023/01/11 10:07:13;;;;;;;1.10;0.50;;;8.70;99.90;;;;;;4974261;28;20518;-71
2023/01/11 10:10:17;;;;;;;1.10;0.50;;;8.70;99.90;;;;;;4979513;28;20452;-71
2023/01/11 10:13:13;;;;;;;1.47;0.70;;;8.70;99.90;;;;;;4989744;28;20418;-71
2023/01/11 10:15:59;;;;;;;1.70;0.80;;;8.80;99.90;;;;;;4981239;28;20466;-71
2023/01/11 10:18:40;;;;;;;1.20;0.50;;;8.70;99.90;;;;;;4962189;28;20424;-71
2023/01/11 10:21:23;;;;;;;2.30;1.00;;;8.80;99.90;;;;;;4966216;28;20427;-71
2023/01/11 10:24:11;;;;;;;1.90;0.70;;;8.80;99.90;;;;;;4968923;28;20435;-71
2023/01/11 10:26:40;;;;;;;1.70;0.60;;;8.80;99.90;;;;;;4974021;28;20482;-71
2023/01/11 10:32:33;;;;;;;1.73;0.70;;;8.80;99.90;;;;;;4990115;28;21014;-71
2023/01/11 10:35:19;;;;;;;3.53;1.00;;;8.80;99.90;;;;;;4979731;28;20461;-71
2023/01/11 10:38:04;;;;;;;1.40;0.70;;;8.80;99.90;;;;;;4990197;28;20434;-71
2023/01/11 10:41:02;;;;;;;1.10;0.50;;;8.80;99.90;;;;;;4986269;28;20415;-71
2023/01/11 10:43:30;;;;;;;1.33;0.70;;;8.90;99.90;;;;;;4971840;28;20444;-71
2023/01/11 10:46:17;;;;;;;1.50;0.77;;;8.90;99.90;;;;;;4970161;28;20416;-71
2023/01/11 10:48:45;;;;;;;9.07;0.80;;;8.90;99.90;;;;;;4967890;28;20428;-71
2023/01/11 10:51:26;;;;;;;1.60;0.73;;;8.90;99.90;;;;;;4973974;28;20419;-71
2023/01/11 10:53:58;;;;;;;1.40;0.80;;;8.90;99.90;;;;;;4983773;28;20439;-71
2023/01/11 10:56:34;;;;;;;2.07;0.80;;;8.90;99.90;;;;;;4987452;28;20465;-71
2023/01/11 10:59:19;;;;;;;1.20;0.50;;;9.00;99.90;;;;;;4973544;28;20415;-71
2023/01/11 11:01:53;;;;;;;1.97;0.80;;;9.00;99.90;;;;;;4971557;28;20444;-71
2023/01/11 11:04:33;;;;;;;1.47;0.60;;;9.00;99.90;;;;;;4985634;28;20513;-71
2023/01/11 11:07:17;;;;;;;1.93;0.73;;;9.00;99.90;;;;;;4989920;28;20429;-71
2023/01/11 11:09:57;;;;;;;2.83;0.90;;;9.00;99.90;;;;;;4965163;28;20419;-71
2023/01/11 11:12:31;;;;;;;1.67;0.90;;;9.00;99.90;;;;;;4989363;28;20414;-71
2023/01/11 11:15:11;;;;;;;4.60;1.57;;;9.00;99.90;;;;;;4989519;28;20466;-71
2023/01/11 11:17:39;;;;;;;2.30;1.00;;;9.00;99.90;;;;;;4990687;28;20426;-71
2023/01/11 11:20:12;;;;;;;3.10;0.80;;;8.90;99.90;;;;;;4984131;28;20451;-71
2023/01/11 11:22:37;;;;;;;1.20;0.50;;;9.00;99.90;;;;;;4990837;28;20919;-71
2023/01/11 11:25:18;;;;;;;1.40;0.60;;;9.00;99.90;;;;;;4991550;28;20529;-71
2023/01/11 11:28:22;;;;;;;2.30;0.80;;;9.00;99.90;;;;;;4960900;28;20810;-71
2023/01/11 11:30:52;;;;;;;1.20;0.60;;;9.10;99.90;;;;;;4990717;28;20422;-71
2023/01/11 11:33:23;;;;;;;1.60;0.60;;;9.10;99.90;;;;;;4990516;28;20710;-71
2023/01/11 11:36:03;;;;;;;2.17;0.70;;;9.20;99.90;;;;;;4990284;28;20497;-71
2023/01/11 11:38:32;;;;;;;5.83;0.77;;;9.10;99.90;;;;;;4993614;28;20477;-71
2023/01/11 11:40:58;;;;;;;1.87;0.80;;;9.10;99.90;;;;;;4995483;28;20418;-71
2023/01/11 11:43:24;;;;;;;6.60;0.77;;;9.20;99.90;;;;;;4978763;28;20438;-71
2023/01/11 11:45:57;;;;;;;1.40;0.60;;;9.10;99.90;;;;;;4985466;28;20541;-72
2023/01/11 11:48:25;;;;;;;1.17;0.53;;;9.00;99.90;;;;;;4994308;28;20431;-71
2023/01/11 11:50:54;;;;;;;1.40;0.57;;;9.10;99.90;;;;;;4994854;28;20426;-71
2023/01/11 11:53:33;;;;;;;2.13;0.60;;;9.10;99.90;;;;;;4993881;28;20427;-72
2023/01/11 11:56:25;;;;;;;1.37;0.50;;;9.10;99.90;;;;;;4992264;28;20473;-72
2023/01/11 11:58:52;;;;;;;1.43;0.70;;;9.10;99.90;;;;;;4979731;28;20434;-72
2023/01/11 12:01:32;;;;;;;1.40;0.60;;;9.00;99.90;;;;;;4976480;28;20453;-72
2023/01/11 12:04:15;;;;;;;1.10;0.50;;;8.90;99.90;;;;;;4987576;28;20423;-72
2023/01/11 12:06:42;;;;;;;1.97;1.03;;;8.90;99.90;;;;;;4972358;28;20443;-72
2023/01/11 12:09:21;;;;;;;1.97;0.73;;;9.00;99.90;;;;;;4989939;28;21194;-72
2023/01/11 12:11:47;;;;;;;4.37;1.47;;;8.90;99.90;;;;;;4993878;28;20418;-72
2023/01/11 12:14:28;;;;;;;2.40;0.50;;;9.00;99.90;;;;;;4986215;28;20422;-72
2023/01/11 12:16:53;;;;;;;1.30;0.60;;;8.90;99.90;;;;;;4994178;28;20183;-74
2023/01/11 12:19:31;;;;;;;4.97;1.37;;;9.00;99.90;;;;;;4994005;28;20430;-72
2023/01/11 12:22:14;;;;;;;1.80;0.70;;;9.00;99.90;;;;;;4993477;28;20200;-72
2023/01/11 12:24:40;;;;;;;1.60;0.90;;;8.90;99.90;;;;;;4994152;28;20419;-72
2023/01/11 12:27:27;;;;;;;2.27;1.37;;;8.90;99.90;;;;;;4993732;28;20438;-71
2023/01/11 12:30:20;;;;;;;2.27;0.67;;;9.00;99.90;;;;;;4993410;28;20191;-72
2023/01/11 12:33:15;;;;;;;3.97;1.00;;;9.00;99.90;;;;;;4993433;28;20844;-71
2023/01/11 12:35:43;;;;;;;1.43;0.73;;;9.00;99.90;;;;;;4993597;28;20554;-72
2023/01/11 12:38:24;;;;;;;3.47;1.20;;;9.10;99.90;;;;;;4994039;28;20418;-72
2023/01/11 12:41:20;;;;;;;1.73;0.70;;;9.00;99.90;;;;;;4993533;28;20497;-72
2023/01/11 12:44:08;;;;;;;2.37;0.97;;;8.90;99.90;;;;;;4992210;28;20446;-72
2023/01/11 12:46:33;;;;;;;1.40;0.67;;;8.90;99.90;;;;;;4993293;28;20514;-73
2023/01/11 12:49:08;;;;;;;4.07;1.17;;;8.90;99.90;;;;;;4992537;28;20510;-72
2023/01/11 12:51:43;;;;;;;3.57;0.90;;;8.80;99.90;;;;;;4993170;28;20179;-72
2023/01/11 12:54:29;;;;;;;1.10;0.50;;;8.70;99.90;;;;;;4993691;28;21044;-72
2023/01/11 12:57:28;;;;;;;2.20;0.97;;;8.70;99.90;;;;;;4992534;28;20564;-73
2023/01/11 13:00:00;;;;;;;2.13;0.60;;;8.70;99.90;;;;;;4976550;28;20424;-72
2023/01/11 13:02:54;;;;;;;1.83;0.80;;;8.70;99.90;;;;;;4979859;28;20442;-72
2023/01/11 13:05:51;;;;;;;1.50;0.73;;;8.60;99.90;;;;;;4965800;28;20462;-72
2023/01/11 13:08:32;;;;;;;1.67;0.93;;;8.60;99.90;;;;;;4981167;28;20467;-73
2023/01/11 13:11:39;;;;;;;2.70;1.17;;;8.60;99.90;;;;;;4993550;28;20418;-73
2023/01/11 13:14:24;;;;;;;1.47;0.63;;;8.60;99.90;;;;;;4981342;28;20485;-73
2023/01/11 13:17:34;;;;;;;1.20;0.60;;;8.60;99.90;;;;;;4970693;28;20435;-73
2023/01/11 13:20:36;;;;;;;1.50;0.70;;;8.60;99.90;;;;;;4977116;28;20415;-73
2023/01/11 13:23:09;;;;;;;1.40;0.60;;;8.60;99.90;;;;;;4973423;28;20438;-73
2023/01/11 13:25:40;;;;;;;1.43;0.70;;;8.60;99.90;;;;;;4993785;28;20416;-72
2023/01/11 13:28:33;;;;;;;1.37;0.70;;;8.60;99.90;;;;;;4993297;28;20526;-72
2023/01/11 13:31:02;;;;;;;6.40;0.80;;;8.60;99.90;;;;;;4992788;28;20415;-72
2023/01/11 13:33:30;;;;;;;1.33;0.80;;;8.60;99.90;;;;;;4992684;28;20411;-72
2023/01/11 13:36:04;;;;;;;2.57;0.80;;;8.60;99.90;;;;;;4992743;28;20774;-73
2023/01/11 13:38:37;;;;;;;1.37;0.70;;;8.60;99.90;;;;;;4992924;28;20419;-73
2023/01/11 13:41:19;;;;;;;4.33;1.23;;;8.60;99.90;;;;;;4992735;28;20804;-72
2023/01/11 13:43:54;;;;;;;1.60;0.80;;;8.70;99.90;;;;;;4979146;28;20457;-73
2023/01/11 13:46:28;;;;;;;2.70;0.80;;;8.60;99.90;;;;;;4987187;28;20449;-73
2023/01/11 13:49:03;;;;;;;1.60;0.63;;;8.70;99.90;;;;;;4991945;28;20413;-73